createdAt,value
2023-05-06T00:03:00.296Z,44.79
2023-05-06T00:06:07.000Z,44.83
2023-05-06T00:09:10.544Z,44.67
2023-05-06T00:12:13.432Z,44.75
2023-05-06T00:15:16.289Z,44.69
2023-05-06T00:18:19.065Z,44.92
2023-05-06T00:21:23.182Z,44.72
2023-05-06T00:24:26.034Z,44.66
2023-05-06T00:27:28.911Z,44.66
2023-05-06T00:30:31.729Z,44.64
2023-05-06T00:33:34.584Z,44.67
2023-05-06T00:36:38.988Z,44.63
2023-05-06T00:39:41.793Z,44.57
2023-05-06T00:42:44.599Z,44.63
2023-05-06T00:45:47.429Z,44.65
2023-05-06T00:48:50.646Z,44.66
2023-05-06T00:51:56.204Z,44.67
2023-05-06T00:54:59.409Z,44.71
2023-05-06T00:58:02.250Z,44.84
2023-05-06T01:01:05.333Z,44.75
2023-05-06T01:04:08.722Z,44.75
2023-05-06T01:07:25.623Z,44.79
2023-05-06T01:10:36.353Z,44.92
2023-05-06T01:13:46.299Z,44.83
2023-05-06T01:16:54.744Z,44.78
2023-05-06T01:20:01.711Z,44.78
2023-05-06T01:23:09.696Z,44.58
2023-05-06T01:26:12.451Z,44.55
2023-05-06T01:29:16.207Z,44.59
2023-05-06T01:32:33.970Z,44.67
2023-05-06T01:35:47.456Z,44.48
2023-05-06T01:38:58.944Z,44.40
2023-05-06T01:42:03.672Z,43.86
2023-05-06T01:45:09.144Z,43.93
2023-05-06T01:48:12.733Z,44.24
2023-05-06T01:51:15.501Z,44.31
2023-05-06T01:54:19.867Z,44.61
2023-05-06T01:57:22.661Z,44.59
2023-05-06T02:00:26.310Z,44.69
2023-05-06T02:03:29.192Z,44.66
2023-05-06T02:06:32.790Z,44.61
2023-05-06T02:09:36.993Z,44.69
2023-05-06T02:12:40.649Z,44.83
2023-05-06T02:15:43.576Z,44.74
2023-05-06T02:18:51.570Z,44.46
2023-05-06T02:21:54.382Z,44.34
2023-05-06T02:24:58.529Z,44.19
2023-05-06T02:28:01.323Z,44.14
2023-05-06T02:31:04.274Z,44.09
2023-05-06T02:34:07.029Z,44.14
2023-05-06T02:37:09.777Z,44.37
2023-05-06T02:40:14.444Z,44.56
2023-05-06T02:43:17.300Z,44.37
2023-05-06T02:46:20.118Z,44.37
2023-05-06T02:49:23.000Z,44.28
2023-05-06T02:52:25.815Z,44.29
2023-05-06T02:55:29.966Z,44.40
2023-05-06T02:58:32.781Z,44.35
2023-05-06T03:01:35.798Z,44.41
2023-05-06T03:04:38.735Z,44.40
2023-05-06T03:07:42.272Z,44.46
2023-05-06T03:10:46.534Z,44.65
2023-05-06T03:13:51.306Z,44.66
2023-05-06T03:16:54.441Z,44.77
2023-05-06T03:19:58.550Z,44.68
2023-05-06T03:23:01.489Z,44.77
2023-05-06T03:26:06.673Z,44.73
2023-05-06T03:29:09.779Z,44.60
2023-05-06T03:32:12.656Z,44.62
2023-05-06T03:35:19.567Z,44.68
2023-05-06T03:38:26.875Z,44.63
2023-05-06T03:41:37.197Z,44.76
2023-05-06T03:44:40.023Z,44.73
2023-05-06T03:47:43.929Z,44.73
2023-05-06T03:50:48.054Z,44.84
2023-05-06T03:53:54.094Z,44.78
2023-05-06T03:56:59.192Z,44.74
2023-05-06T04:00:02.228Z,44.65
2023-05-06T04:03:07.857Z,44.76
2023-05-06T04:06:17.876Z,44.65
2023-05-06T04:09:20.753Z,44.58
2023-05-06T04:12:26.016Z,44.86
2023-05-06T04:15:32.010Z,44.71
2023-05-06T04:18:35.605Z,44.70
2023-05-06T04:21:42.793Z,44.65
2023-05-06T04:24:48.096Z,44.69
2023-05-06T04:27:53.522Z,44.83
2023-05-06T04:30:56.749Z,44.86
2023-05-06T04:34:06.037Z,44.90
2023-05-06T04:37:09.330Z,44.85
2023-05-06T04:40:18.748Z,44.77
2023-05-06T04:43:26.452Z,44.81
2023-05-06T04:46:34.393Z,44.71
2023-05-06T04:49:38.496Z,44.69
2023-05-06T04:52:42.513Z,44.80
2023-05-06T04:55:45.956Z,44.65
2023-05-06T04:58:50.888Z,44.66
2023-05-06T05:01:54.205Z,44.82
2023-05-06T05:04:57.060Z,44.87
2023-05-06T05:08:00.233Z,44.80
2023-05-06T05:11:07.399Z,44.83
2023-05-06T05:14:12.402Z,44.88
2023-05-06T05:17:15.861Z,44.82
2023-05-06T05:20:19.300Z,44.97
2023-05-06T05:23:22.108Z,44.76
2023-05-06T05:26:24.899Z,44.72
2023-05-06T05:29:30.950Z,44.68
2023-05-06T05:32:35.752Z,44.69
2023-05-06T05:35:39.585Z,44.73
2023-05-06T05:38:42.520Z,44.79
2023-05-06T05:41:45.878Z,44.80
2023-05-06T05:44:50.656Z,44.82
2023-05-06T05:47:54.079Z,44.98
2023-05-06T05:50:58.305Z,45.05
2023-05-06T05:54:02.156Z,44.87
2023-05-06T05:57:05.134Z,44.88
2023-05-06T06:00:13.297Z,44.89
2023-05-06T06:03:22.149Z,44.84
2023-05-06T06:06:25.383Z,44.93
2023-05-06T06:09:28.862Z,45.00
2023-05-06T06:12:32.226Z,44.97
2023-05-06T06:15:37.527Z,44.84
2023-05-06T06:18:40.585Z,44.96
2023-05-06T06:21:43.449Z,44.94
2023-05-06T06:24:46.341Z,44.98
2023-05-06T06:27:49.117Z,44.90
2023-05-06T06:30:53.321Z,44.93
2023-05-06T06:33:56.268Z,44.94
2023-05-06T06:36:59.664Z,44.86
2023-05-06T06:40:02.450Z,44.93
2023-05-06T06:43:05.321Z,44.90
2023-05-06T06:46:27.420Z,44.99
2023-05-06T06:49:32.500Z,45.00
2023-05-06T06:52:35.322Z,44.95
2023-05-06T06:55:38.076Z,45.03
2023-05-06T06:58:41.109Z,44.96
2023-05-06T07:01:45.443Z,44.91
2023-05-06T07:04:48.285Z,45.09
2023-05-06T07:07:51.008Z,44.96
2023-05-06T07:10:54.014Z,45.05
2023-05-06T07:13:56.717Z,45.04
2023-05-06T07:17:01.512Z,45.04
2023-05-06T07:20:04.809Z,44.99
2023-05-06T07:23:07.534Z,45.06
2023-05-06T07:26:10.791Z,45.15
2023-05-06T07:29:13.571Z,45.10
2023-05-06T07:32:17.834Z,45.00
2023-05-06T07:35:20.683Z,44.95
2023-05-06T07:38:24.973Z,44.86
2023-05-06T07:41:27.710Z,44.88
2023-05-06T07:44:30.500Z,44.92
2023-05-06T07:47:36.308Z,45.13
2023-05-06T07:50:39.157Z,44.86
2023-05-06T07:53:41.957Z,44.97
2023-05-06T07:56:45.440Z,44.98
2023-05-06T07:59:50.351Z,45.05
2023-05-06T08:02:54.509Z,45.00
2023-05-06T08:05:57.462Z,45.13
2023-05-06T08:09:00.452Z,45.13
2023-05-06T08:12:03.270Z,45.15
2023-05-06T08:15:07.017Z,45.02
2023-05-06T08:18:21.774Z,45.13
2023-05-06T08:21:25.844Z,45.04
2023-05-06T08:24:29.670Z,45.14
2023-05-06T08:27:32.540Z,45.06
2023-05-06T08:30:35.420Z,45.02
2023-05-06T08:33:39.846Z,45.01
2023-05-06T08:36:42.644Z,45.10
2023-05-06T08:39:46.083Z,45.27
2023-05-06T08:42:50.057Z,45.10
2023-05-06T08:45:52.893Z,45.18
2023-05-06T08:48:57.198Z,45.14
2023-05-06T08:52:00.539Z,45.10
2023-05-06T08:55:05.300Z,45.07
2023-05-06T08:58:09.368Z,45.04
2023-05-06T09:01:12.230Z,45.04
2023-05-06T09:04:18.304Z,45.07
2023-05-06T09:07:22.179Z,45.01
2023-05-06T09:10:25.429Z,45.04
2023-05-06T09:13:28.266Z,45.18
2023-05-06T09:16:31.926Z,45.18
2023-05-06T09:19:39.194Z,45.19
2023-05-06T09:22:42.687Z,45.14
2023-05-06T09:25:46.959Z,45.06
2023-05-06T09:28:49.739Z,45.22
2023-05-06T09:31:55.073Z,45.25
2023-05-06T09:34:59.447Z,45.18
2023-05-06T09:38:02.223Z,45.06
2023-05-06T09:41:06.537Z,45.22
2023-05-06T09:44:09.584Z,45.15
2023-05-06T09:47:12.466Z,45.14
2023-05-06T09:50:17.160Z,45.20
2023-05-06T09:53:21.529Z,45.15
2023-05-06T09:56:25.968Z,45.03
2023-05-06T09:59:30.592Z,45.18
2023-05-06T10:02:33.932Z,45.10
2023-05-06T10:05:38.952Z,45.12
2023-05-06T10:08:42.869Z,45.14
2023-05-06T10:11:47.585Z,45.14
2023-05-06T10:14:50.457Z,45.11
2023-05-06T10:17:54.144Z,45.14
2023-05-06T10:21:00.638Z,45.14
2023-05-06T10:24:08.988Z,45.17
2023-05-06T10:27:13.545Z,45.13
2023-05-06T10:30:17.783Z,45.13
2023-05-06T10:33:23.303Z,45.19
2023-05-06T10:36:29.530Z,45.06
2023-05-06T10:39:33.098Z,45.04
2023-05-06T10:42:36.009Z,45.00
2023-05-06T10:46:00.272Z,45.23
2023-05-06T10:49:20.373Z,45.09
2023-05-06T10:52:44.968Z,45.14
2023-05-06T10:55:47.792Z,45.21
2023-05-06T10:58:50.652Z,45.14
2023-05-06T11:01:57.334Z,45.12
2023-05-06T11:05:02.185Z,45.14
2023-05-06T11:08:12.468Z,45.19
2023-05-06T11:11:52.343Z,45.08
2023-05-06T11:14:55.168Z,45.09
2023-05-06T11:17:58.163Z,45.12
2023-05-06T11:21:34.612Z,45.28
2023-05-06T11:24:42.059Z,45.17
2023-05-06T11:27:44.938Z,45.19
2023-05-06T11:30:56.019Z,45.32
2023-05-06T11:34:02.433Z,45.15
2023-05-06T11:37:06.797Z,45.17
2023-05-06T11:40:16.616Z,45.26
2023-05-06T11:43:19.589Z,45.24
2023-05-06T11:46:23.566Z,45.28
2023-05-06T11:49:27.407Z,45.17
2023-05-06T11:52:31.384Z,45.11
2023-05-06T11:55:36.512Z,45.28
2023-05-06T11:58:39.264Z,45.21
2023-05-06T12:01:43.657Z,45.09
2023-05-06T12:04:49.987Z,45.19
2023-05-06T12:07:53.059Z,45.09
2023-05-06T12:11:00.737Z,45.18
2023-05-06T12:14:05.368Z,45.19
2023-05-06T12:17:08.384Z,45.12
2023-05-06T12:20:12.947Z,45.25
2023-05-06T12:23:17.148Z,45.17
2023-05-06T12:26:22.199Z,45.10
2023-05-06T12:29:24.940Z,45.24
2023-05-06T12:32:27.861Z,45.36
2023-05-06T12:35:32.189Z,45.61
2023-05-06T12:38:34.945Z,45.33
2023-05-06T12:41:41.034Z,45.32
2023-05-06T12:44:43.801Z,45.43
2023-05-06T12:47:53.867Z,45.52
2023-05-06T12:50:56.715Z,45.54
2023-05-06T12:53:59.446Z,45.50
2023-05-06T12:57:03.868Z,45.67
2023-05-06T13:00:10.006Z,45.93
2023-05-06T13:03:14.360Z,46.04
2023-05-06T13:06:17.147Z,46.12
2023-05-06T13:09:19.913Z,46.17
2023-05-06T13:12:24.067Z,46.42
2023-05-06T13:15:27.019Z,46.34
2023-05-06T13:18:30.513Z,46.38
2023-05-06T13:21:33.292Z,46.35
2023-05-06T13:24:36.463Z,46.40
2023-05-06T13:27:40.591Z,46.69
2023-05-06T13:30:43.489Z,46.45
2023-05-06T13:33:46.232Z,46.57
2023-05-06T13:36:49.668Z,46.66
2023-05-06T13:39:52.445Z,46.69
2023-05-06T13:42:56.585Z,46.72
2023-05-06T13:45:59.415Z,46.70
2023-05-06T13:49:02.373Z,46.78
2023-05-06T13:52:08.010Z,46.83
2023-05-06T13:55:11.930Z,46.86
2023-05-06T13:58:17.082Z,46.72
2023-05-06T14:01:20.006Z,46.68
2023-05-06T14:04:23.289Z,46.75
2023-05-06T14:07:26.067Z,46.70
2023-05-06T14:10:29.100Z,46.72
2023-05-06T14:13:34.601Z,46.71
2023-05-06T14:16:37.550Z,46.75
2023-05-06T14:19:40.462Z,46.78
2023-05-06T14:22:43.355Z,46.81
2023-05-06T14:25:46.243Z,46.84
2023-05-06T14:28:50.338Z,46.88
2023-05-06T14:31:53.731Z,46.91
2023-05-06T14:34:56.541Z,46.90
2023-05-06T14:37:59.342Z,46.90
2023-05-06T14:41:02.067Z,46.96
2023-05-06T14:44:06.579Z,46.90
2023-05-06T14:47:09.403Z,46.89
2023-05-06T14:50:13.352Z,46.88
2023-05-06T14:53:16.216Z,46.88
2023-05-06T14:56:19.036Z,46.84
2023-05-06T14:59:23.151Z,46.75
2023-05-06T15:02:26.447Z,46.78
2023-05-06T15:05:29.277Z,46.76
2023-05-06T15:08:32.024Z,46.90
2023-05-06T15:11:34.829Z,46.86
2023-05-06T15:14:39.258Z,46.77
2023-05-06T15:17:42.433Z,46.81
2023-05-06T15:20:45.243Z,46.68
2023-05-06T15:23:48.269Z,46.57
2023-05-06T15:26:50.988Z,46.70
2023-05-06T15:29:55.190Z,46.81
2023-05-06T15:32:58.003Z,47.25
2023-05-06T15:36:01.024Z,47.29
2023-05-06T15:39:04.260Z,47.58
2023-05-06T15:42:07.246Z,47.94
2023-05-06T15:45:12.501Z,48.36
2023-05-06T15:48:15.283Z,48.26
2023-05-06T15:51:18.367Z,47.71
2023-05-06T15:54:21.111Z,47.76
2023-05-06T15:57:24.263Z,47.46
2023-05-06T16:00:28.541Z,47.59
2023-05-06T16:03:31.829Z,47.67
2023-05-06T16:06:35.508Z,47.51
2023-05-06T16:09:38.661Z,47.57
2023-05-06T16:12:41.472Z,47.42
2023-05-06T16:15:45.654Z,47.41
2023-05-06T16:18:48.426Z,47.41
2023-05-06T16:21:51.208Z,47.49
2023-05-06T16:24:53.971Z,47.37
2023-05-06T16:27:56.983Z,47.45
2023-05-06T16:31:02.899Z,47.27
2023-05-06T16:34:06.160Z,47.36
2023-05-06T16:37:09.721Z,47.28
2023-05-06T16:40:14.508Z,47.45
2023-05-06T16:43:17.389Z,47.97
2023-05-06T16:46:23.962Z,48.34
2023-05-06T16:49:27.984Z,48.11
2023-05-06T16:52:31.077Z,48.01
2023-05-06T16:55:33.874Z,47.88
2023-05-06T16:58:37.201Z,47.80
2023-05-06T17:01:41.285Z,47.88
2023-05-06T17:04:44.068Z,47.83
2023-05-06T17:07:48.386Z,47.88
2023-05-06T17:10:51.262Z,47.77
2023-05-06T17:13:54.789Z,47.68
2023-05-06T17:17:02.331Z,47.82
2023-05-06T17:20:06.267Z,47.85
2023-05-06T17:23:09.100Z,47.85
2023-05-06T17:26:12.032Z,47.69
2023-05-06T17:29:15.122Z,47.79
2023-05-06T17:32:19.885Z,47.76
2023-05-06T17:35:22.758Z,47.75
2023-05-06T17:38:25.598Z,47.93
2023-05-06T17:41:28.898Z,47.74
2023-05-06T17:44:32.938Z,47.67
2023-05-06T17:47:37.182Z,47.86
2023-05-06T17:50:39.935Z,47.72
2023-05-06T17:53:42.828Z,47.77
2023-05-06T17:56:50.298Z,47.74
2023-05-06T17:59:53.163Z,47.85
2023-05-06T18:02:57.810Z,47.86
2023-05-06T18:06:00.669Z,47.88
2023-05-06T18:09:03.523Z,47.76
2023-05-06T18:12:06.890Z,47.73
2023-05-06T18:15:11.327Z,47.79
2023-05-06T18:18:15.980Z,47.79
2023-05-06T18:21:18.834Z,47.88
2023-05-06T18:24:21.918Z,47.81
2023-05-06T18:27:25.077Z,47.83
2023-05-06T18:30:27.853Z,47.77
2023-05-06T18:33:31.952Z,47.71
2023-05-06T18:36:35.527Z,47.65
2023-05-06T18:39:41.692Z,47.96
2023-05-06T18:42:44.437Z,47.95
2023-05-06T18:45:47.367Z,47.93
2023-05-06T18:48:51.570Z,47.85
2023-05-06T18:51:54.869Z,47.84
2023-05-06T18:54:57.674Z,47.87
2023-05-06T18:58:04.747Z,47.80
2023-05-06T19:01:08.520Z,47.77
2023-05-06T19:04:12.952Z,47.81
2023-05-06T19:07:16.968Z,47.88
2023-05-06T19:10:19.972Z,47.79
2023-05-06T19:13:22.741Z,47.88
2023-05-06T19:16:25.494Z,47.87
2023-05-06T19:19:31.287Z,47.88
2023-05-06T19:22:34.108Z,47.94
2023-05-06T19:25:38.004Z,47.67
2023-05-06T19:28:41.349Z,47.29
2023-05-06T19:31:44.068Z,47.36
2023-05-06T19:34:48.189Z,47.32
2023-05-06T19:37:51.114Z,47.35
2023-05-06T19:40:54.496Z,47.21
2023-05-06T19:43:57.337Z,47.20
2023-05-06T19:47:00.164Z,47.37
2023-05-06T19:50:05.368Z,47.33
2023-05-06T19:53:08.499Z,47.48
2023-05-06T19:56:12.415Z,47.48
2023-05-06T19:59:15.248Z,47.50
2023-05-06T20:02:18.071Z,47.35
2023-05-06T20:05:22.648Z,47.28
2023-05-06T20:08:26.260Z,47.24
2023-05-06T20:11:29.039Z,47.24
2023-05-06T20:14:32.057Z,47.20
2023-05-06T20:17:35.237Z,47.25
2023-05-06T20:20:40.258Z,47.13
2023-05-06T20:23:43.044Z,47.03
2023-05-06T20:26:45.818Z,47.06
2023-05-06T20:29:49.778Z,47.04
2023-05-06T20:32:52.594Z,47.07
2023-05-06T20:35:57.820Z,47.05
2023-05-06T20:39:00.906Z,47.08
2023-05-06T20:42:03.788Z,47.03
2023-05-06T20:45:08.108Z,47.01
2023-05-06T20:48:12.937Z,47.05
2023-05-06T20:51:18.697Z,47.07
2023-05-06T20:54:21.619Z,47.04
2023-05-06T20:57:24.611Z,47.03
2023-05-06T21:00:27.353Z,47.01
2023-05-06T21:03:30.426Z,46.85
2023-05-06T21:06:34.683Z,46.94
2023-05-06T21:09:38.077Z,46.83
2023-05-06T21:13:36.673Z,46.85
2023-05-06T21:16:41.044Z,47.03
2023-05-06T21:19:43.835Z,46.94
2023-05-06T21:22:49.119Z,46.92
2023-05-06T21:25:51.989Z,46.97
2023-05-06T21:28:54.785Z,47.01
2023-05-06T21:31:57.953Z,46.92
2023-05-06T21:35:03.080Z,46.86
2023-05-06T21:38:07.606Z,46.97
2023-05-06T21:41:10.388Z,47.01
2023-05-06T21:44:13.140Z,46.86
2023-05-06T21:47:16.004Z,46.88
2023-05-06T21:50:18.793Z,46.90
2023-05-06T21:53:22.968Z,46.98
2023-05-06T21:56:25.987Z,46.90
2023-05-06T21:59:28.731Z,46.96
2023-05-06T22:02:31.529Z,46.96
2023-05-06T22:05:34.432Z,46.90
2023-05-06T22:08:38.579Z,47.02
2023-05-06T22:11:41.326Z,46.94
2023-05-06T22:14:44.052Z,46.98
2023-05-06T22:17:46.910Z,46.98
2023-05-06T22:20:50.833Z,46.82
2023-05-06T22:23:54.927Z,47.00
2023-05-06T22:26:57.646Z,47.05
2023-05-06T22:30:00.379Z,46.99
2023-05-06T22:33:03.249Z,47.21
2023-05-06T22:36:06.636Z,47.16
2023-05-06T22:39:10.820Z,47.16
2023-05-06T22:42:13.652Z,47.18
2023-05-06T22:45:16.575Z,47.20
2023-05-06T22:48:19.349Z,47.10
2023-05-06T22:51:22.272Z,47.11
2023-05-06T22:54:26.365Z,47.23
2023-05-06T22:57:29.164Z,47.28
2023-05-06T23:00:31.983Z,47.22
2023-05-06T23:03:34.895Z,47.39
2023-05-06T23:06:38.291Z,47.48
2023-05-06T23:09:42.375Z,47.44
2023-05-06T23:12:45.285Z,47.58
2023-05-06T23:15:48.112Z,47.65
2023-05-06T23:18:50.840Z,47.58
2023-05-06T23:25:32.904Z,47.63
2023-05-06T23:28:35.803Z,47.33
2023-05-06T23:31:38.753Z,47.38
2023-05-06T23:34:41.548Z,47.24
2023-05-06T23:37:44.285Z,47.26
2023-05-06T23:40:48.444Z,47.42
2023-05-06T23:43:51.196Z,47.32
2023-05-06T23:46:54.068Z,47.44
2023-05-06T23:49:57.788Z,47.38
2023-05-06T23:53:00.623Z,47.48
2023-05-06T23:56:05.161Z,47.47
2023-05-06T23:59:07.935Z,47.26
